Sentry Page Protection

Latest Glasgow METAR Decoded

What is a METAR?

Raw METAR: EGPF 251920Z 25012KT 9999 FEW029/// SCT040/// //////CB 11/06 Q1009
Time Published: Wed May 25 19:20:00 2022

Altimeter: 1009 hPa (29.80 inHg)
Clouds: Few clouds at 2900ft, Scattered clouds at 4000ft - Reported AGL
Visibility: 10km (6.2sm)
Dewpoint: 6°C (43°F)
Temperature: 11°C (52°F)
Wind: WSW-250 at 12kt

Data pulled from AVWX API.

Customise webcam positions

Apply changes